sensor_id;sensor_type;location;lat;lon;timestamp;P1;durP1;ratioP1;P2;durP2;ratioP2
9918;SDS011;4998;51.024;13.828;2022-11-15T00:01:19;25.97;;;20.77;;
9918;SDS011;4998;51.024;13.828;2022-11-15T00:03:46;26.57;;;20.47;;
9918;SDS011;4998;51.024;13.828;2022-11-15T00:06:18;25.77;;;20.70;;
9918;SDS011;4998;51.024;13.828;2022-11-15T00:08:45;27.00;;;21.43;;
9918;SDS011;4998;51.024;13.828;2022-11-15T00:11:12;24.23;;;19.87;;
9918;SDS011;4998;51.024;13.828;2022-11-15T00:13:39;29.33;;;21.33;;
9918;SDS011;4998;51.024;13.828;2022-11-15T00:16:06;24.20;;;19.70;;
9918;SDS011;4998;51.024;13.828;2022-11-15T00:18:35;27.53;;;20.80;;
9918;SDS011;4998;51.024;13.828;2022-11-15T00:21:03;28.67;;;20.80;;
9918;SDS011;4998;51.024;13.828;2022-11-15T00:23:33;28.50;;;21.37;;
9918;SDS011;4998;51.024;13.828;2022-11-15T00:26:00;26.10;;;21.03;;
9918;SDS011;4998;51.024;13.828;2022-11-15T00:28:27;35.30;;;23.00;;
9918;SDS011;4998;51.024;13.828;2022-11-15T00:30:59;31.00;;;21.50;;
9918;SDS011;4998;51.024;13.828;2022-11-15T00:33:27;26.50;;;20.87;;
9918;SDS011;4998;51.024;13.828;2022-11-15T00:35:58;28.90;;;21.60;;
9918;SDS011;4998;51.024;13.828;2022-11-15T00:38:29;27.27;;;21.17;;
9918;SDS011;4998;51.024;13.828;2022-11-15T00:40:59;27.07;;;21.00;;
9918;SDS011;4998;51.024;13.828;2022-11-15T00:43:26;26.43;;;21.60;;
9918;SDS011;4998;51.024;13.828;2022-11-15T00:45:53;27.17;;;22.17;;
9918;SDS011;4998;51.024;13.828;2022-11-15T00:48:21;28.23;;;22.00;;
9918;SDS011;4998;51.024;13.828;2022-11-15T00:50:48;26.30;;;21.30;;
9918;SDS011;4998;51.024;13.828;2022-11-15T00:53:15;30.27;;;23.30;;
9918;SDS011;4998;51.024;13.828;2022-11-15T00:55:43;33.30;;;23.97;;
9918;SDS011;4998;51.024;13.828;2022-11-15T00:58:11;29.70;;;23.07;;
9918;SDS011;4998;51.024;13.828;2022-11-15T01:00:38;28.07;;;22.27;;
9918;SDS011;4998;51.024;13.828;2022-11-15T01:03:05;29.87;;;22.70;;
9918;SDS011;4998;51.024;13.828;2022-11-15T01:05:32;29.77;;;23.00;;
9918;SDS011;4998;51.024;13.828;2022-11-15T01:07:59;30.10;;;22.77;;
9918;SDS011;4998;51.024;13.828;2022-11-15T01:10:26;28.30;;;22.20;;
9918;SDS011;4998;51.024;13.828;2022-11-15T01:12:53;29.57;;;22.10;;
9918;SDS011;4998;51.024;13.828;2022-11-15T01:15:22;26.93;;;20.80;;
9918;SDS011;4998;51.024;13.828;2022-11-15T01:17:49;32.20;;;23.87;;
9918;SDS011;4998;51.024;13.828;2022-11-15T01:20:16;31.20;;;23.63;;
9918;SDS011;4998;51.024;13.828;2022-11-15T01:22:43;30.10;;;24.00;;
9918;SDS011;4998;51.024;13.828;2022-11-15T01:25:11;30.30;;;22.60;;
9918;SDS011;4998;51.024;13.828;2022-11-15T01:27:38;32.73;;;24.60;;
9918;SDS011;4998;51.024;13.828;2022-11-15T01:30:06;32.80;;;24.30;;
9918;SDS011;4998;51.024;13.828;2022-11-15T01:32:35;31.03;;;24.53;;
9918;SDS011;4998;51.024;13.828;2022-11-15T01:35:02;32.17;;;24.23;;
9918;SDS011;4998;51.024;13.828;2022-11-15T01:37:30;32.67;;;24.47;;
9918;SDS011;4998;51.024;13.828;2022-11-15T01:39:57;30.83;;;23.50;;
9918;SDS011;4998;51.024;13.828;2022-11-15T01:42:24;28.47;;;22.10;;
9918;SDS011;4998;51.024;13.828;2022-11-15T01:44:51;31.40;;;24.17;;
9918;SDS011;4998;51.024;13.828;2022-11-15T01:47:20;37.13;;;25.63;;
9918;SDS011;4998;51.024;13.828;2022-11-15T01:49:54;32.20;;;24.00;;
9918;SDS011;4998;51.024;13.828;2022-11-15T01:52:24;31.80;;;24.67;;
9918;SDS011;4998;51.024;13.828;2022-11-15T01:54:53;38.43;;;26.83;;
9918;SDS011;4998;51.024;13.828;2022-11-15T01:57:25;31.30;;;24.70;;
9918;SDS011;4998;51.024;13.828;2022-11-15T01:59:52;32.93;;;25.20;;
9918;SDS011;4998;51.024;13.828;2022-11-15T02:02:20;33.00;;;24.50;;
9918;SDS011;4998;51.024;13.828;2022-11-15T02:04:47;34.40;;;24.50;;
9918;SDS011;4998;51.024;13.828;2022-11-15T02:07:16;29.77;;;22.83;;
9918;SDS011;4998;51.024;13.828;2022-11-15T02:09:44;31.57;;;23.67;;
9918;SDS011;4998;51.024;13.828;2022-11-15T02:12:13;33.57;;;24.20;;
9918;SDS011;4998;51.024;13.828;2022-11-15T02:14:44;32.67;;;23.23;;
9918;SDS011;4998;51.024;13.828;2022-11-15T02:17:24;32.33;;;23.87;;
9918;SDS011;4998;51.024;13.828;2022-11-15T02:23:14;33.47;;;23.27;;
9918;SDS011;4998;51.024;13.828;2022-11-15T02:26:32;31.03;;;22.67;;
9918;SDS011;4998;51.024;13.828;2022-11-15T02:29:37;29.20;;;22.50;;
9918;SDS011;4998;51.024;13.828;2022-11-15T02:32:23;29.07;;;22.00;;
9918;SDS011;4998;51.024;13.828;2022-11-15T02:35:00;30.43;;;22.80;;
9918;SDS011;4998;51.024;13.828;2022-11-15T02:37:34;30.57;;;23.83;;
9918;SDS011;4998;51.024;13.828;2022-11-15T02:40:06;32.97;;;22.30;;
9918;SDS011;4998;51.024;13.828;2022-11-15T02:42:43;29.00;;;21.63;;
9918;SDS011;4998;51.024;13.828;2022-11-15T02:45:34;30.57;;;23.10;;
9918;SDS011;4998;51.024;13.828;2022-11-15T02:48:06;29.47;;;21.97;;
9918;SDS011;4998;51.024;13.828;2022-11-15T02:50:35;29.60;;;21.07;;
9918;SDS011;4998;51.024;13.828;2022-11-15T02:53:02;29.93;;;21.47;;
9918;SDS011;4998;51.024;13.828;2022-11-15T02:55:30;28.47;;;21.27;;
9918;SDS011;4998;51.024;13.828;2022-11-15T02:58:04;29.10;;;20.70;;
9918;SDS011;4998;51.024;13.828;2022-11-15T03:00:44;26.57;;;19.50;;
9918;SDS011;4998;51.024;13.828;2022-11-15T03:03:30;29.93;;;20.70;;
9918;SDS011;4998;51.024;13.828;2022-11-15T03:06:14;28.03;;;20.93;;
9918;SDS011;4998;51.024;13.828;2022-11-15T03:08:51;31.73;;;21.37;;
9918;SDS011;4998;51.024;13.828;2022-11-15T03:11:23;30.40;;;21.40;;
9918;SDS011;4998;51.024;13.828;2022-11-15T03:13:53;29.33;;;20.77;;
9918;SDS011;4998;51.024;13.828;2022-11-15T03:16:24;26.57;;;19.90;;
9918;SDS011;4998;51.024;13.828;2022-11-15T03:18:57;27.80;;;20.77;;
9918;SDS011;4998;51.024;13.828;2022-11-15T03:21:29;28.00;;;20.30;;
9918;SDS011;4998;51.024;13.828;2022-11-15T03:23:57;27.10;;;19.80;;
9918;SDS011;4998;51.024;13.828;2022-11-15T03:26:29;26.73;;;19.17;;
9918;SDS011;4998;51.024;13.828;2022-11-15T03:28:57;26.30;;;19.77;;
9918;SDS011;4998;51.024;13.828;2022-11-15T03:31:28;29.07;;;20.70;;
9918;SDS011;4998;51.024;13.828;2022-11-15T03:34:18;25.63;;;19.00;;
9918;SDS011;4998;51.024;13.828;2022-11-15T03:36:49;28.30;;;19.90;;
9918;SDS011;4998;51.024;13.828;2022-11-15T03:39:18;25.30;;;18.57;;
9918;SDS011;4998;51.024;13.828;2022-11-15T03:41:47;25.80;;;18.37;;
9918;SDS011;4998;51.024;13.828;2022-11-15T03:44:19;27.27;;;19.83;;
9918;SDS011;4998;51.024;13.828;2022-11-15T03:46:55;25.83;;;17.43;;
9918;SDS011;4998;51.024;13.828;2022-11-15T03:49:29;26.53;;;18.50;;
9918;SDS011;4998;51.024;13.828;2022-11-15T03:51:59;26.00;;;18.50;;
9918;SDS011;4998;51.024;13.828;2022-11-15T03:54:28;26.37;;;18.00;;
9918;SDS011;4998;51.024;13.828;2022-11-15T03:56:55;27.57;;;18.27;;
9918;SDS011;4998;51.024;13.828;2022-11-15T03:59:22;24.03;;;17.20;;
9918;SDS011;4998;51.024;13.828;2022-11-15T04:01:49;22.90;;;16.77;;
9918;SDS011;4998;51.024;13.828;2022-11-15T04:04:16;25.63;;;17.60;;
9918;SDS011;4998;51.024;13.828;2022-11-15T04:06:45;23.50;;;17.53;;
9918;SDS011;4998;51.024;13.828;2022-11-15T04:09:12;23.70;;;16.80;;
9918;SDS011;4998;51.024;13.828;2022-11-15T04:11:39;26.00;;;17.37;;
9918;SDS011;4998;51.024;13.828;2022-11-15T04:14:06;23.40;;;17.50;;
9918;SDS011;4998;51.024;13.828;2022-11-15T04:16:33;23.17;;;17.57;;
9918;SDS011;4998;51.024;13.828;2022-11-15T04:19:00;25.03;;;18.30;;
9918;SDS011;4998;51.024;13.828;2022-11-15T04:21:45;26.30;;;17.67;;
9918;SDS011;4998;51.024;13.828;2022-11-15T04:24:30;23.23;;;17.23;;
9918;SDS011;4998;51.024;13.828;2022-11-15T04:26:57;23.27;;;16.97;;
9918;SDS011;4998;51.024;13.828;2022-11-15T04:29:24;25.00;;;16.57;;
9918;SDS011;4998;51.024;13.828;2022-11-15T04:32:01;22.30;;;16.93;;
9918;SDS011;4998;51.024;13.828;2022-11-15T04:34:28;23.43;;;16.63;;
9918;SDS011;4998;51.024;13.828;2022-11-15T04:36:56;22.30;;;17.40;;
9918;SDS011;4998;51.024;13.828;2022-11-15T04:39:41;20.60;;;15.60;;
9918;SDS011;4998;51.024;13.828;2022-11-15T04:42:09;23.30;;;17.17;;
9918;SDS011;4998;51.024;13.828;2022-11-15T04:44:36;23.20;;;17.37;;
9918;SDS011;4998;51.024;13.828;2022-11-15T04:47:04;24.80;;;17.47;;
9918;SDS011;4998;51.024;13.828;2022-11-15T04:49:31;24.67;;;16.27;;
9918;SDS011;4998;51.024;13.828;2022-11-15T04:52:00;25.30;;;17.60;;
9918;SDS011;4998;51.024;13.828;2022-11-15T04:54:27;23.80;;;16.40;;
9918;SDS011;4998;51.024;13.828;2022-11-15T04:56:54;45.40;;;18.43;;
9918;SDS011;4998;51.024;13.828;2022-11-15T04:59:21;23.67;;;16.80;;
9918;SDS011;4998;51.024;13.828;2022-11-15T05:01:48;22.97;;;17.10;;
9918;SDS011;4998;51.024;13.828;2022-11-15T05:04:15;26.37;;;17.93;;
9918;SDS011;4998;51.024;13.828;2022-11-15T05:06:44;24.33;;;17.07;;
9918;SDS011;4998;51.024;13.828;2022-11-15T05:09:13;21.80;;;16.20;;
9918;SDS011;4998;51.024;13.828;2022-11-15T05:11:40;23.10;;;17.20;;
9918;SDS011;4998;51.024;13.828;2022-11-15T05:14:08;23.07;;;17.27;;
9918;SDS011;4998;51.024;13.828;2022-11-15T05:16:35;22.97;;;17.30;;
9918;SDS011;4998;51.024;13.828;2022-11-15T05:19:02;25.33;;;17.03;;
9918;SDS011;4998;51.024;13.828;2022-11-15T05:21:30;22.77;;;17.30;;
9918;SDS011;4998;51.024;13.828;2022-11-15T05:23:57;22.00;;;16.77;;
9918;SDS011;4998;51.024;13.828;2022-11-15T05:26:25;22.17;;;16.10;;
9918;SDS011;4998;51.024;13.828;2022-11-15T05:28:54;23.53;;;17.70;;
9918;SDS011;4998;51.024;13.828;2022-11-15T05:31:23;24.60;;;17.20;;
9918;SDS011;4998;51.024;13.828;2022-11-15T05:33:51;22.37;;;16.50;;
9918;SDS011;4998;51.024;13.828;2022-11-15T05:36:21;23.37;;;16.70;;
9918;SDS011;4998;51.024;13.828;2022-11-15T05:38:54;22.47;;;16.73;;
9918;SDS011;4998;51.024;13.828;2022-11-15T05:41:22;24.10;;;16.90;;
9918;SDS011;4998;51.024;13.828;2022-11-15T05:43:56;24.33;;;16.60;;
9918;SDS011;4998;51.024;13.828;2022-11-15T05:46:23;21.93;;;16.13;;
9918;SDS011;4998;51.024;13.828;2022-11-15T05:48:51;24.37;;;16.33;;
9918;SDS011;4998;51.024;13.828;2022-11-15T05:51:19;20.50;;;15.77;;
9918;SDS011;4998;51.024;13.828;2022-11-15T05:53:48;22.97;;;16.00;;
9918;SDS011;4998;51.024;13.828;2022-11-15T05:56:17;20.03;;;14.07;;
9918;SDS011;4998;51.024;13.828;2022-11-15T05:58:46;24.23;;;14.87;;
9918;SDS011;4998;51.024;13.828;2022-11-15T06:01:13;23.20;;;15.00;;
9918;SDS011;4998;51.024;13.828;2022-11-15T06:03:40;22.80;;;16.03;;
9918;SDS011;4998;51.024;13.828;2022-11-15T06:06:07;20.20;;;15.60;;
9918;SDS011;4998;51.024;13.828;2022-11-15T06:08:34;21.57;;;15.50;;
9918;SDS011;4998;51.024;13.828;2022-11-15T06:11:04;20.37;;;15.67;;
9918;SDS011;4998;51.024;13.828;2022-11-15T06:13:32;24.30;;;16.63;;
9918;SDS011;4998;51.024;13.828;2022-11-15T06:16:01;22.57;;;15.83;;
9918;SDS011;4998;51.024;13.828;2022-11-15T06:18:28;20.57;;;15.83;;
9918;SDS011;4998;51.024;13.828;2022-11-15T06:20:58;25.47;;;17.10;;
9918;SDS011;4998;51.024;13.828;2022-11-15T06:23:25;24.90;;;16.93;;
9918;SDS011;4998;51.024;13.828;2022-11-15T06:25:52;20.93;;;16.23;;
9918;SDS011;4998;51.024;13.828;2022-11-15T06:28:19;24.03;;;16.10;;
9918;SDS011;4998;51.024;13.828;2022-11-15T06:30:46;20.77;;;15.23;;
9918;SDS011;4998;51.024;13.828;2022-11-15T06:33:15;22.73;;;16.40;;
9918;SDS011;4998;51.024;13.828;2022-11-15T06:35:42;22.43;;;15.37;;
9918;SDS011;4998;51.024;13.828;2022-11-15T06:38:09;23.50;;;15.60;;
9918;SDS011;4998;51.024;13.828;2022-11-15T06:40:37;17.63;;;14.40;;
9918;SDS011;4998;51.024;13.828;2022-11-15T06:43:05;19.73;;;14.67;;
9918;SDS011;4998;51.024;13.828;2022-11-15T06:45:32;21.30;;;14.40;;
9918;SDS011;4998;51.024;13.828;2022-11-15T06:47:59;22.27;;;15.23;;
9918;SDS011;4998;51.024;13.828;2022-11-15T06:50:28;21.73;;;16.10;;
9918;SDS011;4998;51.024;13.828;2022-11-15T06:52:55;20.07;;;14.37;;
9918;SDS011;4998;51.024;13.828;2022-11-15T06:55:28;21.93;;;16.00;;
9918;SDS011;4998;51.024;13.828;2022-11-15T06:57:55;22.23;;;15.07;;
9918;SDS011;4998;51.024;13.828;2022-11-15T07:00:24;23.73;;;16.67;;
9918;SDS011;4998;51.024;13.828;2022-11-15T07:02:59;22.10;;;16.17;;
9918;SDS011;4998;51.024;13.828;2022-11-15T07:05:26;19.80;;;15.30;;
9918;SDS011;4998;51.024;13.828;2022-11-15T07:07:55;23.00;;;16.77;;
9918;SDS011;4998;51.024;13.828;2022-11-15T07:10:23;19.87;;;16.03;;
9918;SDS011;4998;51.024;13.828;2022-11-15T07:12:51;24.60;;;17.00;;
9918;SDS011;4998;51.024;13.828;2022-11-15T07:15:20;26.20;;;17.07;;
9918;SDS011;4998;51.024;13.828;2022-11-15T07:17:49;20.80;;;15.20;;
9918;SDS011;4998;51.024;13.828;2022-11-15T07:20:16;22.10;;;16.03;;
9918;SDS011;4998;51.024;13.828;2022-11-15T07:22:45;24.70;;;16.80;;
9918;SDS011;4998;51.024;13.828;2022-11-15T07:25:12;25.33;;;16.50;;
9918;SDS011;4998;51.024;13.828;2022-11-15T07:27:39;23.00;;;16.80;;
9918;SDS011;4998;51.024;13.828;2022-11-15T07:30:07;23.10;;;16.20;;
9918;SDS011;4998;51.024;13.828;2022-11-15T07:32:35;23.20;;;17.07;;
9918;SDS011;4998;51.024;13.828;2022-11-15T07:35:02;25.03;;;17.90;;
9918;SDS011;4998;51.024;13.828;2022-11-15T07:37:29;26.23;;;18.17;;
9918;SDS011;4998;51.024;13.828;2022-11-15T07:39:58;21.23;;;15.60;;
9918;SDS011;4998;51.024;13.828;2022-11-15T07:42:25;25.13;;;17.40;;
9918;SDS011;4998;51.024;13.828;2022-11-15T07:45:09;25.07;;;17.50;;
9918;SDS011;4998;51.024;13.828;2022-11-15T07:47:36;24.50;;;16.87;;
9918;SDS011;4998;51.024;13.828;2022-11-15T07:50:03;21.73;;;16.40;;
9918;SDS011;4998;51.024;13.828;2022-11-15T07:52:31;23.50;;;16.63;;
9918;SDS011;4998;51.024;13.828;2022-11-15T07:54:59;23.90;;;16.83;;
9918;SDS011;4998;51.024;13.828;2022-11-15T07:57:26;28.57;;;17.37;;
9918;SDS011;4998;51.024;13.828;2022-11-15T07:59:53;22.07;;;16.03;;
9918;SDS011;4998;51.024;13.828;2022-11-15T08:02:20;22.50;;;17.00;;
9918;SDS011;4998;51.024;13.828;2022-11-15T08:04:47;23.90;;;17.50;;
9918;SDS011;4998;51.024;13.828;2022-11-15T08:07:14;23.17;;;16.67;;
9918;SDS011;4998;51.024;13.828;2022-11-15T08:09:41;24.80;;;16.40;;
9918;SDS011;4998;51.024;13.828;2022-11-15T08:12:10;24.97;;;16.60;;
9918;SDS011;4998;51.024;13.828;2022-11-15T08:14:37;23.57;;;16.33;;
9918;SDS011;4998;51.024;13.828;2022-11-15T08:17:04;22.70;;;16.63;;
9918;SDS011;4998;51.024;13.828;2022-11-15T08:19:31;22.40;;;16.80;;
9918;SDS011;4998;51.024;13.828;2022-11-15T08:21:57;31.80;;;16.80;;
9918;SDS011;4998;51.024;13.828;2022-11-15T08:24:25;25.73;;;17.40;;
9918;SDS011;4998;51.024;13.828;2022-11-15T08:26:52;24.30;;;17.73;;
9918;SDS011;4998;51.024;13.828;2022-11-15T08:29:20;25.10;;;17.23;;
9918;SDS011;4998;51.024;13.828;2022-11-15T08:31:47;23.70;;;17.13;;
9918;SDS011;4998;51.024;13.828;2022-11-15T08:34:14;23.50;;;16.97;;
9918;SDS011;4998;51.024;13.828;2022-11-15T08:36:41;24.93;;;17.13;;
9918;SDS011;4998;51.024;13.828;2022-11-15T08:39:09;25.40;;;16.80;;
9918;SDS011;4998;51.024;13.828;2022-11-15T08:41:37;22.93;;;16.17;;
9918;SDS011;4998;51.024;13.828;2022-11-15T08:44:05;22.77;;;15.40;;
9918;SDS011;4998;51.024;13.828;2022-11-15T08:46:33;23.23;;;17.33;;
9918;SDS011;4998;51.024;13.828;2022-11-15T08:49:00;21.80;;;16.40;;
9918;SDS011;4998;51.024;13.828;2022-11-15T08:51:27;23.00;;;17.30;;
9918;SDS011;4998;51.024;13.828;2022-11-15T08:53:54;22.63;;;16.53;;
9918;SDS011;4998;51.024;13.828;2022-11-15T08:56:21;24.87;;;17.70;;
9918;SDS011;4998;51.024;13.828;2022-11-15T08:58:48;21.00;;;16.40;;
9918;SDS011;4998;51.024;13.828;2022-11-15T09:01:16;22.80;;;17.20;;
9918;SDS011;4998;51.024;13.828;2022-11-15T09:03:45;21.70;;;16.53;;
9918;SDS011;4998;51.024;13.828;2022-11-15T09:06:12;22.70;;;16.07;;
9918;SDS011;4998;51.024;13.828;2022-11-15T09:08:40;25.13;;;17.90;;
9918;SDS011;4998;51.024;13.828;2022-11-15T09:11:08;22.80;;;16.77;;
9918;SDS011;4998;51.024;13.828;2022-11-15T09:13:36;22.47;;;16.20;;
9918;SDS011;4998;51.024;13.828;2022-11-15T09:16:03;20.70;;;15.70;;
9918;SDS011;4998;51.024;13.828;2022-11-15T09:18:30;22.73;;;16.30;;
9918;SDS011;4998;51.024;13.828;2022-11-15T09:21:00;22.27;;;16.43;;
9918;SDS011;4998;51.024;13.828;2022-11-15T09:23:27;19.63;;;15.00;;
9918;SDS011;4998;51.024;13.828;2022-11-15T09:25:58;22.83;;;16.37;;
9918;SDS011;4998;51.024;13.828;2022-11-15T09:28:26;20.77;;;15.10;;
9918;SDS011;4998;51.024;13.828;2022-11-15T09:30:55;19.10;;;13.80;;
9918;SDS011;4998;51.024;13.828;2022-11-15T09:33:23;18.80;;;14.73;;
9918;SDS011;4998;51.024;13.828;2022-11-15T09:35:51;19.43;;;14.67;;
9918;SDS011;4998;51.024;13.828;2022-11-15T09:38:20;21.90;;;15.47;;
9918;SDS011;4998;51.024;13.828;2022-11-15T09:40:48;20.17;;;14.50;;
9918;SDS011;4998;51.024;13.828;2022-11-15T09:43:28;19.10;;;14.60;;
9918;SDS011;4998;51.024;13.828;2022-11-15T09:46:04;21.07;;;14.10;;
9918;SDS011;4998;51.024;13.828;2022-11-15T09:51:24;20.53;;;14.07;;
9918;SDS011;4998;51.024;13.828;2022-11-15T09:53:57;19.60;;;13.90;;
9918;SDS011;4998;51.024;13.828;2022-11-15T09:56:29;17.80;;;13.23;;
9918;SDS011;4998;51.024;13.828;2022-11-15T09:59:00;17.70;;;13.03;;
9918;SDS011;4998;51.024;13.828;2022-11-15T10:01:38;17.10;;;13.20;;
9918;SDS011;4998;51.024;13.828;2022-11-15T10:04:11;16.40;;;12.97;;
9918;SDS011;4998;51.024;13.828;2022-11-15T10:06:40;17.03;;;12.70;;
9918;SDS011;4998;51.024;13.828;2022-11-15T10:09:15;16.97;;;13.00;;
9918;SDS011;4998;51.024;13.828;2022-11-15T10:11:46;16.10;;;12.17;;
9918;SDS011;4998;51.024;13.828;2022-11-15T10:14:14;18.53;;;12.83;;
9918;SDS011;4998;51.024;13.828;2022-11-15T10:16:54;18.50;;;13.80;;
9918;SDS011;4998;51.024;13.828;2022-11-15T10:19:47;17.20;;;12.97;;
9918;SDS011;4998;51.024;13.828;2022-11-15T10:22:26;18.63;;;13.50;;
9918;SDS011;4998;51.024;13.828;2022-11-15T10:25:14;18.80;;;13.93;;
9918;SDS011;4998;51.024;13.828;2022-11-15T10:27:46;16.87;;;12.10;;
9918;SDS011;4998;51.024;13.828;2022-11-15T10:30:18;16.17;;;12.30;;
9918;SDS011;4998;51.024;13.828;2022-11-15T10:32:46;16.80;;;12.90;;
9918;SDS011;4998;51.024;13.828;2022-11-15T10:35:18;18.47;;;12.97;;
9918;SDS011;4998;51.024;13.828;2022-11-15T10:37:48;17.33;;;12.30;;
9918;SDS011;4998;51.024;13.828;2022-11-15T10:40:17;16.87;;;12.70;;
9918;SDS011;4998;51.024;13.828;2022-11-15T10:42:46;16.43;;;12.90;;
9918;SDS011;4998;51.024;13.828;2022-11-15T10:45:24;17.67;;;12.57;;
9918;SDS011;4998;51.024;13.828;2022-11-15T10:47:54;18.30;;;13.33;;
9918;SDS011;4998;51.024;13.828;2022-11-15T10:50:46;17.47;;;12.37;;
9918;SDS011;4998;51.024;13.828;2022-11-15T10:53:16;17.83;;;12.83;;
9918;SDS011;4998;51.024;13.828;2022-11-15T10:55:48;19.97;;;13.80;;
9918;SDS011;4998;51.024;13.828;2022-11-15T10:58:21;18.60;;;12.90;;
9918;SDS011;4998;51.024;13.828;2022-11-15T11:00:59;17.30;;;12.57;;
9918;SDS011;4998;51.024;13.828;2022-11-15T11:03:36;18.40;;;13.13;;
9918;SDS011;4998;51.024;13.828;2022-11-15T11:06:05;17.97;;;12.90;;
9918;SDS011;4998;51.024;13.828;2022-11-15T11:08:35;16.53;;;12.30;;
9918;SDS011;4998;51.024;13.828;2022-11-15T11:11:04;19.57;;;13.23;;
9918;SDS011;4998;51.024;13.828;2022-11-15T11:13:34;19.27;;;12.97;;
9918;SDS011;4998;51.024;13.828;2022-11-15T11:16:09;18.57;;;13.50;;
9918;SDS011;4998;51.024;13.828;2022-11-15T11:19:04;16.67;;;13.47;;
9918;SDS011;4998;51.024;13.828;2022-11-15T11:21:44;15.97;;;11.53;;
9918;SDS011;4998;51.024;13.828;2022-11-15T11:24:21;16.00;;;11.97;;
9918;SDS011;4998;51.024;13.828;2022-11-15T11:26:59;15.40;;;11.33;;
9918;SDS011;4998;51.024;13.828;2022-11-15T11:29:43;15.77;;;11.97;;
9918;SDS011;4998;51.024;13.828;2022-11-15T11:32:23;16.10;;;11.97;;
9918;SDS011;4998;51.024;13.828;2022-11-15T11:35:01;18.03;;;12.20;;
9918;SDS011;4998;51.024;13.828;2022-11-15T11:37:40;15.60;;;12.10;;
9918;SDS011;4998;51.024;13.828;2022-11-15T11:40:20;17.03;;;11.70;;
9918;SDS011;4998;51.024;13.828;2022-11-15T11:42:58;14.67;;;11.37;;
9918;SDS011;4998;51.024;13.828;2022-11-15T11:48:34;15.60;;;11.57;;
9918;SDS011;4998;51.024;13.828;2022-11-15T11:51:09;19.07;;;12.30;;
9918;SDS011;4998;51.024;13.828;2022-11-15T11:53:41;15.57;;;10.93;;
9918;SDS011;4998;51.024;13.828;2022-11-15T11:56:16;14.60;;;11.50;;
9918;SDS011;4998;51.024;13.828;2022-11-15T11:58:50;16.93;;;12.60;;
9918;SDS011;4998;51.024;13.828;2022-11-15T12:01:22;18.90;;;13.13;;
9918;SDS011;4998;51.024;13.828;2022-11-15T12:03:53;14.87;;;10.93;;
9918;SDS011;4998;51.024;13.828;2022-11-15T12:06:29;15.23;;;12.07;;
9918;SDS011;4998;51.024;13.828;2022-11-15T12:09:01;18.30;;;12.90;;
9918;SDS011;4998;51.024;13.828;2022-11-15T12:11:35;15.80;;;12.00;;
9918;SDS011;4998;51.024;13.828;2022-11-15T12:14:11;17.67;;;12.30;;
9918;SDS011;4998;51.024;13.828;2022-11-15T12:16:45;16.67;;;12.03;;
9918;SDS011;4998;51.024;13.828;2022-11-15T12:19:12;16.83;;;11.70;;
9918;SDS011;4998;51.024;13.828;2022-11-15T12:21:41;15.33;;;12.17;;
9918;SDS011;4998;51.024;13.828;2022-11-15T12:24:15;17.20;;;12.37;;
9918;SDS011;4998;51.024;13.828;2022-11-15T12:26:48;15.07;;;11.40;;
9918;SDS011;4998;51.024;13.828;2022-11-15T12:29:22;15.23;;;11.77;;
9918;SDS011;4998;51.024;13.828;2022-11-15T12:31:53;15.83;;;12.13;;
9918;SDS011;4998;51.024;13.828;2022-11-15T12:34:41;16.70;;;12.67;;
9918;SDS011;4998;51.024;13.828;2022-11-15T12:40:04;15.17;;;10.87;;
9918;SDS011;4998;51.024;13.828;2022-11-15T12:43:00;13.30;;;10.63;;
9918;SDS011;4998;51.024;13.828;2022-11-15T12:45:32;16.00;;;12.10;;
9918;SDS011;4998;51.024;13.828;2022-11-15T12:51:08;15.33;;;12.23;;
9918;SDS011;4998;51.024;13.828;2022-11-15T12:53:35;15.67;;;11.83;;
9918;SDS011;4998;51.024;13.828;2022-11-15T12:56:17;16.53;;;12.00;;
9918;SDS011;4998;51.024;13.828;2022-11-15T12:58:49;16.20;;;12.60;;
9918;SDS011;4998;51.024;13.828;2022-11-15T13:04:26;16.10;;;12.10;;
9918;SDS011;4998;51.024;13.828;2022-11-15T13:06:55;16.93;;;12.10;;
9918;SDS011;4998;51.024;13.828;2022-11-15T13:18:30;16.77;;;11.87;;
9918;SDS011;4998;51.024;13.828;2022-11-15T13:20:59;14.60;;;11.60;;
9918;SDS011;4998;51.024;13.828;2022-11-15T13:23:51;14.40;;;11.20;;
9918;SDS011;4998;51.024;13.828;2022-11-15T13:26:19;13.97;;;11.10;;
9918;SDS011;4998;51.024;13.828;2022-11-15T13:28:47;16.07;;;12.00;;
9918;SDS011;4998;51.024;13.828;2022-11-15T13:31:30;15.93;;;12.73;;
9918;SDS011;4998;51.024;13.828;2022-11-15T13:34:14;16.70;;;12.20;;
9918;SDS011;4998;51.024;13.828;2022-11-15T13:36:51;17.43;;;12.37;;
9918;SDS011;4998;51.024;13.828;2022-11-15T13:39:25;18.83;;;13.10;;
9918;SDS011;4998;51.024;13.828;2022-11-15T13:41:54;16.83;;;12.97;;
9918;SDS011;4998;51.024;13.828;2022-11-15T13:44:22;19.37;;;13.20;;
9918;SDS011;4998;51.024;13.828;2022-11-15T13:47:00;18.00;;;13.10;;
9918;SDS011;4998;51.024;13.828;2022-11-15T13:49:30;17.83;;;12.80;;
9918;SDS011;4998;51.024;13.828;2022-11-15T13:51:58;17.20;;;12.10;;
9918;SDS011;4998;51.024;13.828;2022-11-15T13:54:28;17.30;;;12.70;;
9918;SDS011;4998;51.024;13.828;2022-11-15T13:57:00;16.23;;;12.37;;
9918;SDS011;4998;51.024;13.828;2022-11-15T13:59:29;16.10;;;12.30;;
9918;SDS011;4998;51.024;13.828;2022-11-15T14:01:58;16.20;;;12.23;;
9918;SDS011;4998;51.024;13.828;2022-11-15T14:04:28;16.00;;;12.30;;
9918;SDS011;4998;51.024;13.828;2022-11-15T14:06:59;18.50;;;13.27;;
9918;SDS011;4998;51.024;13.828;2022-11-15T14:09:31;17.80;;;13.10;;
9918;SDS011;4998;51.024;13.828;2022-11-15T14:12:01;17.50;;;11.80;;
9918;SDS011;4998;51.024;13.828;2022-11-15T14:14:47;17.03;;;12.40;;
9918;SDS011;4998;51.024;13.828;2022-11-15T14:17:18;15.97;;;12.80;;
9918;SDS011;4998;51.024;13.828;2022-11-15T14:19:50;19.90;;;13.63;;
9918;SDS011;4998;51.024;13.828;2022-11-15T14:22:18;17.13;;;12.97;;
9918;SDS011;4998;51.024;13.828;2022-11-15T14:25:05;16.57;;;13.10;;
9918;SDS011;4998;51.024;13.828;2022-11-15T14:27:40;16.17;;;13.13;;
9918;SDS011;4998;51.024;13.828;2022-11-15T14:30:12;18.70;;;14.27;;
9918;SDS011;4998;51.024;13.828;2022-11-15T14:32:43;18.47;;;13.27;;
9918;SDS011;4998;51.024;13.828;2022-11-15T14:35:14;17.20;;;13.00;;
9918;SDS011;4998;51.024;13.828;2022-11-15T14:37:42;19.87;;;14.20;;
9918;SDS011;4998;51.024;13.828;2022-11-15T14:40:12;18.70;;;13.90;;
9918;SDS011;4998;51.024;13.828;2022-11-15T14:42:40;18.07;;;13.80;;
9918;SDS011;4998;51.024;13.828;2022-11-15T14:45:10;17.07;;;13.13;;
9918;SDS011;4998;51.024;13.828;2022-11-15T14:47:40;22.57;;;14.57;;
9918;SDS011;4998;51.024;13.828;2022-11-15T14:50:10;17.57;;;12.83;;
9918;SDS011;4998;51.024;13.828;2022-11-15T14:52:40;19.43;;;13.73;;
9918;SDS011;4998;51.024;13.828;2022-11-15T14:55:13;18.37;;;13.57;;
9918;SDS011;4998;51.024;13.828;2022-11-15T14:57:44;17.87;;;13.83;;
9918;SDS011;4998;51.024;13.828;2022-11-15T15:00:12;15.60;;;12.77;;
9918;SDS011;4998;51.024;13.828;2022-11-15T15:02:40;19.80;;;13.93;;
9918;SDS011;4998;51.024;13.828;2022-11-15T15:05:17;17.90;;;13.17;;
9918;SDS011;4998;51.024;13.828;2022-11-15T15:07:46;18.50;;;12.63;;
9918;SDS011;4998;51.024;13.828;2022-11-15T15:10:14;18.77;;;13.30;;
9918;SDS011;4998;51.024;13.828;2022-11-15T15:12:41;18.40;;;13.07;;
9918;SDS011;4998;51.024;13.828;2022-11-15T15:15:11;17.37;;;13.13;;
9918;SDS011;4998;51.024;13.828;2022-11-15T15:17:40;16.83;;;13.03;;
9918;SDS011;4998;51.024;13.828;2022-11-15T15:20:07;19.60;;;13.40;;
9918;SDS011;4998;51.024;13.828;2022-11-15T15:22:36;19.10;;;13.67;;